Time;durP1;ratioP1;P1;durP2;ratioP2;P2;SDS_P1;SDS_P2;PMS_P1;PMS_P2;Temp;Humidity;BMP_temperature;BMP_pressure;BME280_temperature;BME280_humidity;BME280_pressure;Samples;Min_cycle;Max_cycle;Signal;HPM_P1;HPM_P2
2023/06/20 00:00:16;;;;;;;23.90;11.73;;;;;;;20.16;64.86;95376.09;5143678;27;20035;-78
2023/06/20 00:02:42;;;;;;;18.88;11.15;;;;;;;20.15;65.15;95371.03;5136232;27;20022;-79
2023/06/20 00:05:07;;;;;;;19.02;11.98;;;;;;;19.91;65.09;95331.34;5133441;27;20350;-79
2023/06/20 00:07:34;;;;;;;23.30;11.10;;;;;;;20.13;65.19;95373.28;5133123;27;20113;-79
2023/06/20 00:09:59;;;;;;;20.73;11.40;;;;;;;20.11;65.18;95381.69;5133212;27;20412;-79
2023/06/20 00:12:25;;;;;;;20.20;11.10;;;;;;;20.13;65.06;95384.84;5133208;27;20030;-79
2023/06/20 00:14:50;;;;;;;19.80;12.18;;;;;;;20.11;65.24;95376.31;5133194;27;20043;-79
2023/06/20 00:17:16;;;;;;;22.83;10.88;;;;;;;19.95;65.33;95368.03;5133203;27;20420;-79
2023/06/20 00:19:41;;;;;;;18.15;10.63;;;;;;;19.96;65.23;95366.91;5133093;27;20018;-79
2023/06/20 00:22:07;;;;;;;18.27;11.52;;;;;;;20.02;65.51;95376.38;5133127;27;20130;-79
2023/06/20 00:24:32;;;;;;;16.85;10.75;;;;;;;20.02;65.41;95383.66;5152175;27;20033;-79
2023/06/20 00:27:02;;;;;;;24.48;10.82;;;;;;;19.70;65.47;95343.97;5133328;27;20034;-79
2023/06/20 00:29:27;;;;;;;17.40;11.20;;;;;;;19.73;66.15;95368.34;5133161;27;20033;-79
2023/06/20 00:31:53;;;;;;;20.00;11.60;;;;;;;19.57;66.06;95332.34;5133270;27;20026;-79
2023/06/20 00:34:18;;;;;;;16.88;10.65;;;;;;;19.80;65.98;95381.28;5133214;27;20026;-79
2023/06/20 00:36:44;;;;;;;17.05;11.27;;;;;;;19.55;66.02;95334.56;5151952;27;20320;-79
2023/06/20 00:39:10;;;;;;;18.95;10.32;;;;;;;19.73;65.96;95381.00;5133032;27;20091;-79
2023/06/20 00:41:36;;;;;;;17.40;10.63;;;;;;;19.38;65.63;95327.34;5133295;27;20436;-79
2023/06/20 00:44:03;;;;;;;20.45;10.43;;;;;;;19.69;65.49;95374.69;5151540;27;20031;-79
2023/06/20 00:46:32;;;;;;;16.63;10.27;;;;;;;19.52;65.65;95349.47;5151679;27;20042;-79
2023/06/20 00:48:59;;;;;;;17.70;11.07;;;;;;;19.67;65.67;95366.16;5151759;27;20129;-79
2023/06/20 00:51:28;;;;;;;18.50;10.52;;;;;;;19.53;65.70;95356.41;5133281;27;20469;-79
2023/06/20 00:53:54;;;;;;;20.77;10.15;;;;;;;19.54;65.99;95363.38;5132869;27;20027;-79
2023/06/20 00:56:19;;;;;;;18.23;10.32;;;;;;;19.35;65.91;95338.78;5132977;27;20026;-79
2023/06/20 00:58:45;;;;;;;15.32;10.38;;;;;;;19.49;66.33;95362.78;5151726;27;20037;-79
2023/06/20 01:01:11;;;;;;;15.45;10.13;;;;;;;19.39;66.30;95346.97;5151583;27;20159;-79
2023/06/20 01:03:37;;;;;;;16.35;10.52;;;;;;;19.37;66.61;95352.69;5132741;27;20503;-79
2023/06/20 01:06:05;;;;;;;13.65;10.07;;;;;;;19.45;66.63;95368.00;5132590;27;20641;-79
2023/06/20 01:08:39;;;;;;;23.10;10.32;;;;;;;19.36;66.97;95367.25;5151247;27;20054;-79
2023/06/20 01:11:11;;;;;;;14.93;9.85;;;;;;;19.39;66.63;95358.53;5132984;27;20775;-79
2023/06/20 01:13:51;;;;;;;17.40;9.50;;;;;;;19.37;66.81;95368.84;5155479;27;20119;-79
2023/06/20 01:16:29;;;;;;;12.30;8.73;;;;;;;19.32;67.19;95370.91;5136903;27;20576;-79
2023/06/20 01:19:16;;;;;;;18.65;10.65;;;;;;;19.35;66.84;95370.25;5155416;27;20087;-79
2023/06/20 01:21:54;;;;;;;15.95;9.75;;;;;;;19.17;66.89;95345.34;5136599;27;20027;-79
2023/06/20 01:24:35;;;;;;;19.23;10.40;;;;;;;19.13;66.79;95333.69;5136703;27;20031;-79
2023/06/20 01:27:10;;;;;;;13.57;9.70;;;;;;;19.28;67.02;95370.78;5136695;27;20034;-79
2023/06/20 01:29:49;;;;;;;15.05;9.55;;;;;;;19.32;67.04;95371.69;5137133;27;20049;-79
2023/06/20 01:32:18;;;;;;;13.27;9.90;;;;;;;19.18;66.76;95347.72;5155446;27;20027;-79
2023/06/20 01:34:48;;;;;;;14.23;9.23;;;;;;;19.23;66.78;95352.13;5155186;27;20117;-79
2023/06/20 01:37:17;;;;;;;18.77;9.93;;;;;;;19.21;66.84;95355.16;5136129;27;20034;-79
2023/06/20 01:39:51;;;;;;;17.02;9.40;;;;;;;19.04;67.10;95333.72;5136669;27;20489;-79
2023/06/20 01:42:22;;;;;;;19.75;9.70;;;;;;;19.22;67.21;95372.06;5154942;27;20362;-79
2023/06/20 01:44:49;;;;;;;14.88;9.13;;;;;;;18.83;67.27;95317.53;5136116;27;20416;-77
2023/06/20 01:47:17;;;;;;;15.45;9.57;;;;;;;19.00;67.27;95348.88;5157109;27;20368;-78
2023/06/20 01:49:46;;;;;;;19.50;9.48;;;;;;;18.93;67.11;95342.44;5138237;27;20058;-78
2023/06/20 01:52:16;;;;;;;16.88;9.82;;;;;;;19.12;67.30;95380.47;5138219;27;20031;-77
2023/06/20 01:54:46;;;;;;;18.07;10.40;;;;;;;18.91;67.22;95350.06;5156645;27;20123;-77
2023/06/20 01:57:13;;;;;;;19.05;9.98;;;;;;;19.04;67.36;95371.34;5138368;27;20283;-78
2023/06/20 01:59:41;;;;;;;15.60;10.02;;;;;;;18.83;67.28;95347.06;5157461;27;20038;-78
2023/06/20 02:02:07;;;;;;;18.83;10.80;;;;;;;18.65;67.40;95332.09;5157999;27;20019;-78
2023/06/20 02:04:34;;;;;;;23.20;10.43;;;;;;;18.67;67.47;95329.91;5138819;27;20172;-78
2023/06/20 02:07:03;;;;;;;15.50;10.60;;;;;;;18.80;67.46;95360.34;5138255;27;20091;-78
2023/06/20 02:09:29;;;;;;;14.75;10.20;;;;;;;18.79;67.53;95364.94;5133041;27;20047;-78
2023/06/20 02:11:55;;;;;;;19.80;10.23;;;;;;;18.62;67.60;95335.41;5136034;27;20035;-78
2023/06/20 02:14:21;;;;;;;20.75;9.68;;;;;;;18.77;67.59;95377.88;5117600;27;20023;-78
2023/06/20 02:16:48;;;;;;;16.30;9.85;;;;;;;18.77;67.82;95374.41;5118002;27;20072;-78
2023/06/20 02:19:14;;;;;;;16.77;10.27;;;;;;;18.61;67.72;95370.69;5117209;27;20597;-77
2023/06/20 02:21:44;;;;;;;16.55;9.77;;;;;;;18.66;67.90;95382.03;5136046;27;20031;-78
2023/06/20 02:24:18;;;;;;;15.43;9.77;;;;;;;18.48;67.96;95365.13;5134595;27;20031;-78
2023/06/20 02:26:45;;;;;;;13.15;9.60;;;;;;;18.33;68.36;95348.72;5135839;27;20366;-78
2023/06/20 02:29:12;;;;;;;16.30;9.40;;;;;;;18.28;68.31;95344.31;5117301;27;20138;-78
2023/06/20 02:31:45;;;;;;;14.95;9.82;;;;;;;18.53;68.26;95380.31;5116971;27;20103;-78
2023/06/20 02:34:14;;;;;;;14.68;9.35;;;;;;;18.39;68.12;95368.91;5116907;27;20032;-78
2023/06/20 02:36:42;;;;;;;20.20;10.65;;;;;;;17.95;68.10;95300.28;5116787;27;20448;-78
2023/06/20 02:39:08;;;;;;;16.88;10.27;;;;;;;18.27;68.36;95350.78;5117593;27;20501;-78
2023/06/20 02:41:34;;;;;;;17.48;9.65;;;;;;;18.43;68.38;95386.78;5116918;27;20377;-78
2023/06/20 02:43:59;;;;;;;19.67;9.93;;;;;;;18.11;68.30;95336.28;5115475;27;20034;-78
2023/06/20 02:46:39;;;;;;;20.35;10.30;;;;;;;18.12;68.49;95343.22;5116782;27;20106;-78
2023/06/20 02:49:13;;;;;;;18.77;10.15;;;;;;;18.38;68.49;95396.91;5117178;27;20558;-78
2023/06/20 02:51:54;;;;;;;17.52;9.48;;;;;;;18.21;68.70;95370.84;5116677;27;20115;-78
2023/06/20 02:54:28;;;;;;;23.98;10.45;;;;;;;18.39;68.52;95396.56;5116497;27;20031;-78
2023/06/20 02:56:55;;;;;;;23.60;10.00;;;;;;;18.44;68.52;95409.06;5116636;27;20031;-78
2023/06/20 02:59:25;;;;;;;15.90;8.32;;;;;;;18.24;68.24;95413.16;5135079;27;20496;-78
2023/06/20 03:01:56;;;;;;;16.35;9.40;;;;;;;18.30;68.47;95419.97;5134660;27;20046;-78
2023/06/20 03:04:25;;;;;;;17.55;9.90;;;;;;;18.26;67.83;95386.78;5141738;27;20102;-78
2023/06/20 03:06:53;;;;;;;20.52;9.65;;;;;;;18.46;67.70;95423.72;5155328;27;20137;-78
2023/06/20 03:09:19;;;;;;;14.88;9.88;;;;;;;18.24;67.77;95399.72;5155024;27;20153;-78
2023/06/20 03:11:45;;;;;;;19.45;10.00;;;;;;;18.32;67.64;95401.63;5136375;27;20057;-78
2023/06/20 03:14:12;;;;;;;17.40;9.77;;;;;;;18.39;67.54;95401.94;5155976;27;20738;-77
2023/06/20 03:16:38;;;;;;;22.42;11.05;;;;;;;18.16;66.96;95394.38;5154951;27;20345;-78
2023/06/20 03:19:03;;;;;;;19.80;10.05;;;;;;;18.17;67.51;95406.69;5155731;27;20114;-78
2023/06/20 03:21:29;;;;;;;18.05;9.27;;;;;;;18.17;67.85;95433.50;5136853;27;20031;-78
2023/06/20 03:23:54;;;;;;;17.95;9.77;;;;;;;18.28;67.20;95440.97;5155500;27;20434;-78
2023/06/20 03:26:20;;;;;;;18.33;10.00;;;;;;;18.13;67.47;95418.06;5155172;27;20050;-78
2023/06/20 03:28:45;;;;;;;18.50;9.40;;;;;;;17.99;67.02;95379.06;5154904;27;20041;-78
2023/06/20 03:31:10;;;;;;;23.38;9.98;;;;;;;18.20;66.92;95447.13;5155305;27;20094;-78
2023/06/20 03:33:36;;;;;;;16.90;10.15;;;;;;;18.23;66.69;95429.59;5154855;27;20098;-78
2023/06/20 03:36:01;;;;;;;17.30;9.82;;;;;;;17.99;67.33;95404.00;5154712;27;20035;-77
2023/06/20 03:38:27;;;;;;;16.30;9.38;;;;;;;18.37;67.01;95435.59;5154851;27;20042;-78
2023/06/20 03:40:54;;;;;;;20.90;9.18;;;;;;;18.25;67.07;95405.88;5154840;27;20022;-78
2023/06/20 03:43:19;;;;;;;22.58;10.70;;;;;;;18.49;67.23;95438.44;5154584;27;20141;-77
2023/06/20 03:45:45;;;;;;;19.02;10.27;;;;;;;18.36;66.89;95417.91;5135706;27;20144;-78
2023/06/20 03:48:10;;;;;;;21.80;10.75;;;;;;;17.80;67.17;95328.38;5135818;27;20031;-78
2023/06/20 03:50:36;;;;;;;24.00;10.77;;;;;;;18.41;67.20;95423.91;5135811;27;20030;-78
2023/06/20 03:53:01;;;;;;;31.08;10.95;;;;;;;18.52;67.23;95429.75;5154688;27;20045;-78
2023/06/20 03:55:27;;;;;;;22.52;10.32;;;;;;;18.54;67.13;95446.31;5135442;27;20083;-77
2023/06/20 03:57:52;;;;;;;21.48;10.90;;;;;;;18.44;67.13;95419.78;5118219;27;20037;-77
2023/06/20 04:00:18;;;;;;;16.95;9.35;;;;;;;18.50;67.02;95422.00;5154312;27;20022;-78
2023/06/20 04:02:45;;;;;;;19.98;10.70;;;;;;;18.42;66.89;95408.56;5154073;27;20023;-78
2023/06/20 04:05:11;;;;;;;16.92;9.60;;;;;;;18.68;66.97;95451.56;5135577;27;20038;-78
2023/06/20 04:07:41;;;;;;;15.68;10.15;;;;;;;18.40;66.66;95403.50;5153309;27;20046;-78
2023/06/20 04:10:08;;;;;;;22.08;11.18;;;;;;;18.66;66.79;95429.59;5153623;27;20031;-78
2023/06/20 04:12:35;;;;;;;14.90;9.80;;;;;;;18.59;66.86;95410.50;5142821;27;20039;-78
2023/06/20 04:15:02;;;;;;;25.35;10.63;;;;;;;18.80;66.82;95433.69;5108914;27;20043;-78
2023/06/20 04:17:27;;;;;;;25.83;11.40;;;;;;;18.71;66.41;95408.72;5130911;27;20038;-78
2023/06/20 04:19:53;;;;;;;22.55;12.82;;;;;;;18.88;66.31;95432.09;5127340;27;20486;-78
2023/06/20 04:22:19;;;;;;;18.27;12.13;;;;;;;17.80;65.76;95271.25;5094621;28;20053;-78
2023/06/20 04:24:49;;;;;;;19.55;11.60;;;;;;;18.70;65.74;95409.03;5105091;28;20028;-78
2023/06/20 04:27:15;;;;;;;21.85;12.05;;;;;;;18.69;65.21;95402.88;5106019;27;20039;-78
2023/06/20 04:29:40;;;;;;;19.50;11.95;;;;;;;18.72;65.20;95401.47;5123441;27;20102;-78
2023/06/20 04:32:06;;;;;;;22.80;12.07;;;;;;;18.82;65.32;95406.50;5096904;27;21260;-78
2023/06/20 04:34:31;;;;;;;23.10;12.38;;;;;;;19.16;65.02;95441.34;5115105;27;20181;-78
2023/06/20 04:36:57;;;;;;;20.17;11.50;;;;;;;19.29;65.20;95458.41;5110322;27;20102;-78
2023/06/20 04:39:22;;;;;;;18.58;10.80;;;;;;;19.34;65.42;95450.16;5111725;27;20537;-78
2023/06/20 04:41:47;;;;;;;30.65;11.98;;;;;;;19.37;65.45;95460.28;5113845;27;20035;-79
2023/06/20 04:44:13;;;;;;;21.02;13.18;;;;;;;19.22;64.92;95437.34;5130152;27;20600;-79
2023/06/20 04:46:38;;;;;;;26.02;12.73;;;;;;;17.94;64.40;95228.94;5113907;27;20047;-79
2023/06/20 04:49:07;;;;;;;24.92;12.23;;;;;;;18.61;63.84;95344.59;5114728;28;20045;-79
2023/06/20 04:51:32;;;;;;;27.20;13.25;;;;;;;19.37;63.63;95449.50;5106607;28;20035;-78
2023/06/20 04:53:58;;;;;;;20.13;13.00;;;;;;;19.13;63.38;95433.13;5115731;27;20091;-79
2023/06/20 04:56:24;;;;;;;22.60;12.55;;;;;;;15.53;63.54;94897.53;5116115;28;20141;-79
2023/06/20 04:58:50;;;;;;;24.45;12.40;;;;;;;19.41;63.64;95460.41;5125701;27;20035;-79
2023/06/20 05:01:16;;;;;;;28.80;14.23;;;;;;;19.45;63.91;95483.66;5094287;27;20118;-78
2023/06/20 05:03:46;;;;;;;27.00;15.10;;;;;;;16.67;63.67;95048.00;5114545;28;20417;-78
2023/06/20 05:06:16;;;;;;;33.00;14.60;;;;;;;18.32;63.38;95304.97;5134716;27;20035;-79
2023/06/20 05:08:44;;;;;;;28.60;14.57;;;;;;;16.47;63.06;95024.50;5131249;27;20055;-78
2023/06/20 05:11:10;;;;;;;26.88;15.02;;;;;;;19.48;62.88;95476.84;5106464;28;20055;-78
2023/06/20 05:13:36;;;;;;;30.58;15.35;;;;;;;18.08;63.20;95304.69;5096804;28;20031;-78
2023/06/20 05:16:01;;;;;;;25.65;13.70;;;;;;;18.44;63.07;95315.06;5123280;28;20478;-78
2023/06/20 05:18:27;;;;;;;27.45;14.43;;;;;;;19.45;62.88;95478.28;5104836;27;20031;-78
2023/06/20 05:20:55;;;;;;;28.83;14.93;;;;;;;19.35;62.92;95435.59;5088474;28;22081;-77
2023/06/20 05:23:21;;;;;;;29.17;14.07;;;;;;;19.49;62.35;95451.53;5087460;28;20101;-78
2023/06/20 05:25:46;;;;;;;25.67;11.38;;;;;;;19.65;61.72;95476.78;5093430;28;20140;-78
2023/06/20 05:28:12;;;;;;;22.00;13.18;;;;;;;19.53;61.32;95463.25;5098898;28;20034;-78
2023/06/20 05:30:37;;;;;;;23.17;13.52;;;;;;;19.67;61.29;95465.72;5098153;28;20039;-79
2023/06/20 05:33:02;;;;;;;25.65;13.18;;;;;;;19.01;61.78;95387.31;5111109;27;20510;-79
2023/06/20 05:35:28;;;;;;;17.58;12.10;;;;;;;19.56;62.20;95466.06;5098994;28;20111;-80
2023/06/20 05:37:53;;;;;;;29.27;12.95;;;;;;;18.49;62.78;95320.25;5091300;27;20024;-79
2023/06/20 05:40:19;;;;;;;22.17;13.10;;;;;;;19.52;62.40;95458.97;5098419;28;20049;-78
2023/06/20 05:42:44;;;;;;;26.00;14.70;;;;;;;19.65;62.08;95474.91;5102173;27;20039;-78
2023/06/20 05:45:10;;;;;;;17.60;11.93;;;;;;;19.72;62.23;95460.94;5093352;28;20055;-78
2023/06/20 05:47:36;;;;;;;22.67;12.50;;;;;;;19.46;62.08;95395.66;5114405;27;20922;-78
2023/06/20 05:50:01;;;;;;;25.08;14.43;;;;;;;19.12;62.08;95330.19;5108750;28;20090;-78
2023/06/20 05:52:27;;;;;;;39.65;15.68;;;;;;;19.98;62.16;95464.28;5092075;28;20038;-78
2023/06/20 05:54:55;;;;;;;62.17;15.73;;;;;;;19.81;62.70;95434.78;5109366;27;20128;-78
2023/06/20 05:57:21;;;;;;;32.65;14.52;;;;;;;19.94;62.20;95446.41;5112729;27;20219;-78
2023/06/20 05:59:47;;;;;;;45.42;15.13;;;;;;;20.17;62.14;95469.22;5091208;27;20039;-78
2023/06/20 06:02:12;;;;;;;35.47;15.15;;;;;;;19.96;62.18;95455.75;5115829;27;20023;-79
2023/06/20 06:04:37;;;;;;;34.90;15.05;;;;;;;20.01;62.87;95484.38;5096313;27;20036;-79
2023/06/20 06:07:07;;;;;;;36.08;16.60;;;;;;;19.97;62.51;95488.84;5110365;27;20854;-79
2023/06/20 06:09:33;;;;;;;31.85;14.60;;;;;;;19.83;62.36;95469.44;5103955;27;20047;-78
2023/06/20 06:11:58;;;;;;;26.48;15.10;;;;;;;20.07;62.09;95483.06;5092920;27;20039;-79
2023/06/20 06:14:24;;;;;;;25.02;15.23;;;;;;;20.20;61.93;95489.34;5104606;27;20169;-79
2023/06/20 06:16:49;;;;;;;31.40;14.93;;;;;;;20.20;62.04;95487.44;5092874;27;20122;-80
2023/06/20 06:19:15;;;;;;;25.88;14.18;;;;;;;20.21;61.88;95486.31;5109355;27;20386;-78
2023/06/20 06:21:40;;;;;;;29.40;14.30;;;;;;;19.95;61.87;95443.41;5113282;27;20073;-78
2023/06/20 06:24:06;;;;;;;26.48;14.25;;;;;;;20.06;61.76;95457.28;5100823;27;20049;-79
2023/06/20 06:26:32;;;;;;;28.00;13.32;;;;;;;20.31;61.47;95477.84;5098495;27;20818;-78
2023/06/20 06:28:59;;;;;;;30.73;14.10;;;;;;;20.22;61.84;95471.72;5112641;27;20031;-78
2023/06/20 06:31:29;;;;;;;32.55;15.35;;;;;;;20.29;62.14;95487.38;5099543;27;20031;-78
2023/06/20 06:33:57;;;;;;;26.38;15.48;;;;;;;20.36;61.81;95488.47;5076587;27;20057;-78
2023/06/20 06:36:27;;;;;;;26.13;14.02;;;;;;;20.39;61.37;95465.44;5085627;27;20049;-77
2023/06/20 06:38:54;;;;;;;23.42;13.73;;;;;;;20.26;60.74;95424.19;5092969;27;20066;-78
2023/06/20 06:41:21;;;;;;;26.25;13.02;;;;;;;20.46;60.58;95436.09;5122694;27;20881;-78
2023/06/20 06:43:47;;;;;;;25.60;13.85;;;;;;;20.30;61.25;95422.38;5109514;27;20038;-78
2023/06/20 06:46:12;;;;;;;28.05;14.93;;;;;;;20.49;61.98;95465.06;5107115;27;20264;-77
2023/06/20 06:48:38;;;;;;;22.75;13.40;;;;;;;20.45;61.47;95433.72;5109479;27;20078;-78
2023/06/20 06:51:03;;;;;;;24.17;14.32;;;;;;;20.69;61.08;95464.25;5086670;27;20676;-78
2023/06/20 06:53:29;;;;;;;23.38;13.38;;;;;;;20.40;61.39;95418.56;5106022;27;20035;-78
2023/06/20 06:55:54;;;;;;;25.92;14.65;;;;;;;20.53;61.10;95416.69;5096668;27;20051;-78
2023/06/20 06:58:20;;;;;;;29.70;13.20;;;;;;;20.77;61.75;95463.41;5105383;27;20231;-78
2023/06/20 07:00:45;;;;;;;28.17;14.45;;;;;;;20.76;60.99;95442.94;5128536;27;21619;-78
2023/06/20 07:03:11;;;;;;;22.83;13.65;;;;;;;20.74;60.06;95441.72;5087173;27;20069;-78
2023/06/20 07:05:37;;;;;;;26.17;12.50;;;;;;;20.82;60.21;95454.34;5109271;27;20027;-78
2023/06/20 07:08:03;;;;;;;22.23;12.38;;;;;;;20.71;60.05;95453.16;5100834;27;20057;-78
2023/06/20 07:10:29;;;;;;;27.33;12.63;;;;;;;20.72;60.98;95436.66;5095326;27;20116;-78
2023/06/20 07:12:54;;;;;;;26.63;12.68;;;;;;;20.81;59.46;95433.88;5100325;27;20485;-78
2023/06/20 07:15:19;;;;;;;21.85;12.82;;;;;;;20.95;60.03;95430.91;5095481;27;20035;-78
2023/06/20 07:17:45;;;;;;;29.75;11.70;;;;;;;20.94;59.30;95400.44;5093327;27;20566;-77
2023/06/20 07:20:11;;;;;;;23.35;12.10;;;;;;;21.13;58.50;95426.91;5105620;27;20035;-77
2023/06/20 07:22:37;;;;;;;21.35;11.55;;;;;;;21.25;58.05;95439.63;5098331;27;20139;-77
2023/06/20 07:25:04;;;;;;;17.63;10.27;;;;;;;21.10;57.55;95403.28;5126176;27;20171;-77
2023/06/20 07:27:29;;;;;;;15.82;10.63;;;;;;;21.22;56.16;95429.50;5099314;27;20028;-77
2023/06/20 07:29:55;;;;;;;24.92;12.35;;;;;;;21.32;57.49;95432.56;5113724;27;20038;-78
2023/06/20 07:32:21;;;;;;;22.10;9.45;;;;;;;21.08;55.35;95413.63;5096988;27;20038;-77
2023/06/20 07:34:46;;;;;;;16.75;10.50;;;;;;;21.33;55.24;95415.28;5084299;27;20528;-78
2023/06/20 07:37:11;;;;;;;20.40;9.52;;;;;;;21.41;55.44;95429.78;5114169;27;20039;-79
2023/06/20 07:39:42;;;;;;;16.20;8.80;;;;;;;21.52;53.30;95439.78;5098036;27;20225;-79
2023/06/20 07:42:09;;;;;;;19.30;10.15;;;;;;;21.63;52.52;95445.53;5114323;27;20462;-78
2023/06/20 07:44:35;;;;;;;17.00;9.00;;;;;;;21.75;53.25;95448.22;5099354;27;20091;-78
2023/06/20 07:47:00;;;;;;;20.38;8.80;;;;;;;21.78;51.90;95444.06;5112869;27;20031;-78
2023/06/20 07:49:28;;;;;;;16.92;9.50;;;;;;;21.84;53.12;95423.81;5092608;27;20038;-78
2023/06/20 07:51:53;;;;;;;15.40;9.43;;;;;;;21.53;53.15;95394.69;5089160;27;20027;-78
2023/06/20 07:54:19;;;;;;;15.50;9.02;;;;;;;21.99;52.94;95447.47;5092552;27;20093;-78
2023/06/20 07:56:44;;;;;;;16.92;10.50;;;;;;;21.86;52.54;95422.38;5093671;27;20624;-80
2023/06/20 07:59:11;;;;;;;16.77;8.38;;;;;;;21.97;52.16;95417.31;5107424;27;20391;-80
2023/06/20 08:01:36;;;;;;;17.48;9.32;;;;;;;21.99;52.35;95406.16;5089451;27;20482;-79
2023/06/20 08:04:02;;;;;;;15.07;9.27;;;;;;;22.42;52.39;95438.72;5087961;27;20046;-80
2023/06/20 08:06:27;;;;;;;21.92;8.18;;;;;;;22.39;51.35;95434.00;5110530;27;20046;-80
2023/06/20 08:08:53;;;;;;;12.25;7.38;;;;;;;22.54;48.50;95448.72;5109567;27;20822;-80
2023/06/20 08:11:22;;;;;;;16.05;8.07;;;;;;;22.38;48.27;95393.81;5113511;27;20050;-80
2023/06/20 08:13:47;;;;;;;12.57;7.28;;;;;;;22.46;49.03;95395.59;5090352;27;20031;-80
2023/06/20 08:16:13;;;;;;;11.23;8.05;;;;;;;22.69;48.31;95434.47;5109554;27;20027;-80
2023/06/20 08:18:38;;;;;;;14.50;7.72;;;;;;;23.06;48.35;95446.72;5091299;27;20058;-80
2023/06/20 08:21:04;;;;;;;13.68;7.70;;;;;;;22.94;48.00;95416.25;5114840;27;20035;-81
2023/06/20 08:23:29;;;;;;;16.30;8.50;;;;;;;23.26;47.79;95449.56;5134952;27;20095;-80
2023/06/20 08:25:56;;;;;;;15.25;9.25;;;;;;;23.32;48.38;95448.16;5100624;27;20042;-82
2023/06/20 08:28:23;;;;;;;13.50;8.73;;;;;;;23.56;48.34;95458.88;5096663;27;20083;-80
2023/06/20 08:30:49;;;;;;;13.93;8.18;;;;;;;23.68;48.05;95445.22;5083945;27;20050;-81
2023/06/20 08:33:16;;;;;;;12.68;7.78;;;;;;;23.60;47.00;95416.41;5105874;27;20039;-80
2023/06/20 08:35:41;;;;;;;14.02;8.23;;;;;;;23.53;46.23;95416.25;5101036;27;20409;-81
2023/06/20 08:38:07;;;;;;;17.50;7.85;;;;;;;23.67;46.27;95454.47;5114882;27;20046;-81
2023/06/20 08:40:34;;;;;;;12.95;8.27;;;;;;;23.42;46.33;95417.88;5100290;27;20035;-81
2023/06/20 08:42:59;;;;;;;12.77;7.57;;;;;;;23.70;46.21;95447.59;5106203;27;20038;-80
2023/06/20 08:45:25;;;;;;;11.55;7.75;;;;;;;23.24;46.70;95397.69;5111638;27;20035;-81
2023/06/20 08:47:50;;;;;;;12.70;8.50;;;;;;;23.57;47.43;95451.53;5099628;27;20119;-80
2023/06/20 08:50:16;;;;;;;13.43;8.02;;;;;;;23.60;45.53;95435.34;5105796;27;20031;-80
2023/06/20 08:52:47;;;;;;;14.57;7.78;;;;;;;23.67;47.65;95423.91;5120081;27;20058;-81
2023/06/20 08:55:16;;;;;;;12.75;7.90;;;;;;;23.72;46.06;95443.41;5089747;28;20466;-82
2023/06/20 08:57:45;;;;;;;17.00;7.97;;;;;;;24.08;45.77;95458.56;5105037;27;20103;-81
2023/06/20 09:00:16;;;;;;;12.13;6.97;;;;;;;23.61;44.52;95390.13;5089175;28;20486;-81
2023/06/20 09:02:41;;;;;;;9.77;6.75;;;;;;;23.95;44.93;95459.03;5095050;28;20437;-81
2023/06/20 09:05:07;;;;;;;12.27;7.15;;;;;;;23.84;45.29;95451.41;5093746;28;20077;-80
2023/06/20 09:07:35;;;;;;;10.90;7.13;;;;;;;23.79;44.23;95450.91;5091437;27;20763;-80
2023/06/20 09:10:01;;;;;;;14.55;6.80;;;;;;;23.73;44.46;95428.69;5095664;27;20099;-80
2023/06/20 09:12:27;;;;;;;9.77;6.63;;;;;;;23.35;44.15;95339.19;5105250;27;20029;-80
2023/06/20 09:14:52;;;;;;;11.98;7.25;;;;;;;23.93;44.83;95383.53;5095311;27;20054;-81
2023/06/20 09:17:19;;;;;;;11.48;7.53;;;;;;;24.51;45.78;95444.03;5089285;27;20117;-81
2023/06/20 09:19:46;;;;;;;11.45;6.55;;;;;;;24.70;46.35;95442.47;5100228;27;20153;-81
2023/06/20 09:22:12;;;;;;;12.68;7.43;;;;;;;24.53;46.70;95416.56;5098153;27;20034;-80
2023/06/20 09:24:45;;;;;;;11.38;7.70;;;;;;;24.68;44.40;95445.53;5100787;27;20027;-80
2023/06/20 09:27:11;;;;;;;11.50;7.15;;;;;;;24.48;44.95;95400.59;5102654;27;20039;-82
2023/06/20 09:29:56;;;;;;;13.15;7.43;;;;;;;24.72;44.28;95427.41;5079963;27;20031;-79
2023/06/20 09:32:22;;;;;;;15.80;7.97;;;;;;;24.64;46.10;95422.22;5082558;27;20127;-79
2023/06/20 09:34:47;;;;;;;10.50;7.75;;;;;;;24.81;44.74;95430.69;5092040;27;20153;-80
2023/06/20 09:37:18;;;;;;;14.07;7.57;;;;;;;24.89;44.78;95434.31;5110826;27;20035;-80
2023/06/20 09:39:44;;;;;;;;;;;;;;;25.05;44.15;95429.63;5105073;27;20833;-79
2023/06/20 09:42:13;;;;;;;13.60;7.68;;;;;;;25.08;43.74;95393.66;5111696;27;19995;-81
2023/06/20 09:44:40;;;;;;;11.40;7.65;;;;;;;25.63;43.60;95403.13;5127762;27;20217;-80
2023/06/20 09:47:06;;;;;;;10.63;6.97;;;;;;;26.02;41.46;95422.75;5130511;27;20118;-80
2023/06/20 09:49:34;;;;;;;13.85;7.13;;;;;;;26.80;39.62;95410.19;5108465;27;20128;-80
2023/06/20 09:52:14;;;;;;;9.77;6.90;;;;;;;26.52;40.23;95380.75;5105336;27;20712;-82
2023/06/20 09:54:45;;;;;;;12.40;7.68;;;;;;;27.08;40.55;95396.13;5122034;27;20099;-81
2023/06/20 09:57:16;;;;;;;10.77;7.32;;;;;;;27.60;38.40;95416.91;5127463;27;20047;-81
2023/06/20 09:59:42;;;;;;;10.82;6.35;;;;;;;28.07;37.09;95428.16;5123626;27;20027;-80
2023/06/20 10:02:09;;;;;;;10.20;6.32;;;;;;;28.63;35.96;95417.59;5113350;27;20669;-80
2023/06/20 10:04:42;;;;;;;11.82;6.90;;;;;;;28.42;36.40;95330.97;5113141;27;20030;-80
2023/06/20 10:07:13;;;;;;;9.23;6.38;;;;;;;29.02;36.49;95425.16;5085316;27;20035;-81
2023/06/20 10:09:42;;;;;;;13.48;6.05;;;;;;;29.84;34.95;95429.59;5098768;27;20051;-81
2023/06/20 10:12:10;;;;;;;9.48;6.20;;;;;;;30.43;33.79;95404.56;5103533;27;20107;-81
2023/06/20 10:14:36;;;;;;;12.38;6.53;;;;;;;30.60;32.46;95409.97;5126929;27;20043;-81
2023/06/20 10:17:07;;;;;;;9.52;6.25;;;;;;;29.62;34.04;95380.78;5114918;27;20035;-81
2023/06/20 10:19:47;;;;;;;12.05;5.70;;;;;;;29.78;33.90;95386.66;5103735;27;20708;-81
2023/06/20 10:22:13;;;;;;;9.45;6.05;;;;;;;29.97;33.25;95399.16;5125176;27;20558;-81
2023/06/20 10:24:39;;;;;;;10.15;6.30;;;;;;;30.33;33.77;95422.53;5112238;27;20035;-81
2023/06/20 10:27:05;;;;;;;10.27;6.55;;;;;;;28.70;35.67;95341.19;5100129;27;20130;-81
2023/06/20 10:29:40;;;;;;;10.07;6.43;;;;;;;29.60;34.42;95433.09;5127097;27;20201;-81
2023/06/20 10:32:12;;;;;;;11.30;5.95;;;;;;;29.59;34.25;95411.66;5100884;27;20031;-82
2023/06/20 10:34:41;;;;;;;10.23;6.70;;;;;;;29.11;35.67;95411.94;5124498;27;20528;-81
2023/06/20 10:37:24;;;;;;;13.82;7.32;;;;;;;28.91;36.83;95416.19;5132112;27;20038;-81
2023/06/20 10:39:57;;;;;;;10.65;7.75;;;;;;;28.45;37.53;95358.66;5105368;27;20150;-81
2023/06/20 10:42:42;;;;;;;13.13;6.97;;;;;;;29.20;36.75;95423.28;5102224;27;20035;-81
2023/06/20 10:45:25;;;;;;;11.35;6.78;;;;;;;29.63;36.47;95402.28;5129465;27;20083;-81
2023/06/20 10:47:54;;;;;;;13.18;6.72;;;;;;;30.14;36.86;95388.19;5126191;27;20027;-81
2023/06/20 10:50:21;;;;;;;12.15;6.88;;;;;;;30.69;34.76;95423.25;5127730;27;20035;-82
2023/06/20 10:52:47;;;;;;;10.13;7.10;;;;;;;31.27;34.54;95410.88;5096078;27;20023;-82
2023/06/20 10:55:14;;;;;;;9.50;6.35;;;;;;;31.44;32.96;95399.78;5128597;27;20039;-81
2023/06/20 10:57:45;;;;;;;10.07;6.38;;;;;;;31.49;31.93;95395.06;5119547;27;20046;-81
2023/06/20 11:00:21;;;;;;;13.13;6.63;;;;;;;31.55;31.98;95404.41;5097676;27;20039;-81
2023/06/20 11:02:48;;;;;;;9.70;6.05;;;;;;;32.16;30.34;95402.78;5117255;27;20087;-81
2023/06/20 11:05:14;;;;;;;12.32;6.47;;;;;;;32.17;31.26;95380.41;5119046;27;20031;-81
2023/06/20 11:08:08;;;;;;;11.95;6.65;;;;;;;31.71;31.62;95369.06;5123984;27;20074;-81
2023/06/20 11:10:39;;;;;;;8.10;6.45;;;;;;;31.37;31.43;95309.41;5088266;27;20497;-82
2023/06/20 11:13:06;;;;;;;8.55;6.32;;;;;;;32.10;31.04;95385.94;5129061;27;20082;-81
2023/06/20 11:15:35;;;;;;;8.73;6.28;;;;;;;32.28;30.93;95388.53;5100670;27;20057;-81
2023/06/20 11:18:03;;;;;;;13.82;6.55;;;;;;;32.25;31.03;95370.16;5148062;27;20489;-82
2023/06/20 11:20:29;;;;;;;7.68;6.50;;;;;;;32.44;30.64;95394.22;5102274;27;20465;-82
2023/06/20 11:22:57;;;;;;;9.10;6.13;;;;;;;32.72;29.95;95384.16;5147453;27;20038;-82